Time;durP1;ratioP1;P1;durP2;ratioP2;P2;SDS_P1;SDS_P2;PMS_P1;PMS_P2;Temp;Humidity;BMP_temperature;BMP_pressure;BME280_temperature;BME280_humidity;BME280_pressure;Samples;Min_cycle;Max_cycle;Signal;HPM_P1;HPM_P2
2022/08/22 00:07:53;;;;;;;13.00;11.50;;;;;;;18.57;91.84;99038.58;431316;1271;147593;-61
2022/08/22 00:18:08;;;;;;;13.10;11.90;;;;;;;18.61;91.87;99038.27;430952;1271;142302;-62
2022/08/22 00:28:19;;;;;;;14.30;13.10;;;;;;;18.65;92.11;99042.67;431075;1271;142057;-58
2022/08/22 00:38:33;;;;;;;15.40;13.80;;;;;;;18.70;92.09;99055.08;430238;1271;147573;-60
2022/08/22 00:49:01;;;;;;;17.80;16.10;;;;;;;18.75;92.22;99060.02;431390;1271;142093;-62
2022/08/22 00:59:21;;;;;;;19.60;17.80;;;;;;;18.81;92.34;99062.50;430408;1271;142219;-61
2022/08/22 01:09:42;;;;;;;19.10;17.40;;;;;;;18.83;92.25;99065.95;430978;1271;143042;-62
2022/08/22 01:20:43;;;;;;;18.80;17.10;;;;;;;18.85;92.16;99064.80;430425;1271;147447;-59
2022/08/22 01:31:19;;;;;;;19.40;17.50;;;;;;;18.82;92.08;99066.83;429929;1271;147139;-60
2022/08/22 01:41:53;;;;;;;17.60;16.10;;;;;;;18.78;92.26;99067.91;429948;1271;142864;-61
2022/08/22 01:52:04;;;;;;;16.70;15.30;;;;;;;18.78;92.35;99067.39;430681;1271;142703;-59
2022/08/22 02:02:24;;;;;;;17.60;15.90;;;;;;;18.65;92.10;99057.90;430209;1271;147321;-60
2022/08/22 02:12:42;;;;;;;16.00;14.70;;;;;;;18.49;92.36;99049.75;431227;1271;147152;-61
2022/08/22 02:22:58;;;;;;;17.60;16.10;;;;;;;18.36;92.65;99054.09;430557;1271;142404;-59
2022/08/22 02:33:12;;;;;;;18.40;16.80;;;;;;;18.28;92.90;99059.37;430868;1271;143619;-61
2022/08/22 02:43:22;;;;;;;18.20;16.70;;;;;;;18.26;92.90;99063.29;430819;1271;142891;-60
2022/08/22 02:53:39;;;;;;;18.00;16.30;;;;;;;18.17;92.96;99065.91;430053;1271;184813;-60
2022/08/22 03:03:48;;;;;;;18.10;16.50;;;;;;;18.06;93.24;99069.92;431171;1271;184929;-61
2022/08/22 03:14:04;;;;;;;17.40;15.70;;;;;;;17.96;93.69;99066.86;430356;1271;143742;-60
2022/08/22 03:24:16;;;;;;;18.60;16.90;;;;;;;17.91;94.18;99070.23;430692;1271;143507;-61
2022/08/22 03:34:25;;;;;;;17.60;16.20;;;;;;;17.92;94.54;99068.33;431071;1271;146384;-60
2022/08/22 03:45:04;;;;;;;17.90;16.10;;;;;;;17.94;94.83;99075.75;429927;1271;141836;-60
2022/08/22 03:55:27;;;;;;;15.80;14.30;;;;;;;18.02;94.68;99087.17;431563;1271;142983;-61
2022/08/22 04:05:57;;;;;;;14.10;12.90;;;;;;;18.19;94.88;99087.38;430316;1271;145749;-60
2022/08/22 04:16:47;;;;;;;12.20;11.10;;;;;;;18.47;94.27;99088.69;430969;1271;142403;-62
2022/08/22 04:26:59;;;;;;;11.30;10.20;;;;;;;18.96;92.89;99095.63;431042;1271;146451;-62
2022/08/22 04:37:13;;;;;;;11.30;10.20;;;;;;;19.21;91.18;99103.85;430769;1271;142121;-62
2022/08/22 04:47:30;;;;;;;10.90;10.00;;;;;;;19.40;89.12;99112.20;430458;1271;142537;-61
2022/08/22 04:57:49;;;;;;;8.60;7.50;;;;;;;19.94;87.61;99114.20;430973;1271;143526;-62
2022/08/22 05:07:58;;;;;;;8.30;7.50;;;;;;;20.67;84.93;99114.94;430304;1271;143883;-59
2022/08/22 05:18:08;;;;;;;8.20;7.40;;;;;;;21.60;82.23;99122.45;431047;1271;142020;-61
2022/08/22 05:28:23;;;;;;;7.40;6.60;;;;;;;22.15;78.69;99133.99;431422;1271;143460;-61
2022/08/22 05:38:34;;;;;;;8.40;7.60;;;;;;;21.50;78.44;99138.59;430171;1271;146690;-61
2022/08/22 05:48:45;;;;;;;8.10;7.40;;;;;;;21.79;77.56;99151.41;438646;1271;142270;-61
2022/08/22 05:58:58;;;;;;;9.30;8.30;;;;;;;21.49;77.20;99161.49;439136;1271;142966;-60
2022/08/22 06:09:12;;;;;;;8.70;7.80;;;;;;;21.67;77.14;99162.77;430627;1271;142074;-60
2022/08/22 06:19:20;;;;;;;10.00;8.80;;;;;;;21.97;76.43;99168.52;430996;1271;142271;-60
2022/08/22 06:29:35;;;;;;;8.80;7.90;;;;;;;22.40;75.24;99161.35;430123;1271;148140;-60
2022/08/22 06:39:45;;;;;;;9.40;6.70;;;;;;;23.70;73.57;99168.98;429806;1271;1343665;-62
2022/08/22 06:49:55;;;;;;;7.30;6.60;;;;;;;25.70;69.55;99169.19;430024;1271;146666;-61
2022/08/22 07:00:08;;;;;;;6.90;6.30;;;;;;;25.92;68.14;99184.58;431161;1271;143182;-61
2022/08/22 07:10:15;;;;;;;7.20;6.30;;;;;;;28.71;62.53;99196.18;431306;1271;141910;-60
2022/08/22 07:20:30;;;;;;;6.70;6.10;;;;;;;27.26;62.40;99201.66;430518;1271;148409;-61
2022/08/22 07:30:45;;;;;;;5.20;4.70;;;;;;;32.39;57.71;99187.10;431309;1271;146275;-58
2022/08/22 07:41:02;;;;;;;7.30;4.20;;;;;;;36.18;49.43;99186.58;430644;1271;147225;-61
2022/08/22 07:51:12;;;;;;;4.30;3.90;;;;;;;37.62;45.86;99182.14;432360;1271;145956;-60
2022/08/22 08:01:22;;;;;;;8.00;4.90;;;;;;;36.75;42.86;99180.71;432337;1271;141899;-60
2022/08/22 08:11:32;;;;;;;8.50;5.00;;;;;;;31.94;45.62;99189.48;431676;1271;140920;-61
2022/08/22 08:21:42;;;;;;;5.30;4.90;;;;;;;29.75;48.10;99193.63;432348;1271;142453;-60
2022/08/22 08:31:48;;;;;;;7.80;5.20;;;;;;;28.33;50.28;99191.37;431374;1271;141596;-60
2022/08/22 08:42:13;;;;;;;6.50;6.00;;;;;;;26.85;52.63;99196.40;431653;1271;141707;-61
2022/08/22 08:52:40;;;;;;;5.80;5.10;;;;;;;25.70;54.87;99194.54;431374;1268;142116;-60
2022/08/22 09:03:00;;;;;;;6.10;5.60;;;;;;;25.58;55.85;99197.77;431234;1271;154264;-60
2022/08/22 09:13:34;;;;;;;5.30;4.70;;;;;;;25.70;56.34;99191.33;431207;1271;145548;-60
2022/08/22 09:24:11;;;;;;;7.90;5.30;;;;;;;26.46;55.59;99188.17;431113;1270;144256;-61
2022/08/22 09:34:29;;;;;;;6.90;4.60;;;;;;;26.08;55.61;99184.88;431050;1271;143711;-60
2022/08/22 09:44:43;;;;;;;6.20;5.20;;;;;;;25.75;56.45;99181.61;431244;1271;141969;-60
2022/08/22 09:54:54;;;;;;;5.60;4.80;;;;;;;25.92;56.56;99182.62;431598;1271;142002;-61
2022/08/22 10:05:12;;;;;;;6.00;5.50;;;;;;;26.36;55.98;99181.10;430753;1271;141302;-60
2022/08/22 10:15:43;;;;;;;6.80;5.20;;;;;;;26.36;55.68;99181.47;431354;1270;140431;-61
2022/08/22 10:25:53;;;;;;;6.20;5.70;;;;;;;26.21;56.16;99180.14;430559;1271;146061;-60
2022/08/22 10:36:06;;;;;;;6.10;5.50;;;;;;;25.63;56.41;99181.35;431400;1271;142431;-60
2022/08/22 10:46:22;;;;;;;6.60;6.00;;;;;;;25.04;57.18;99180.61;430782;1271;141319;-59
2022/08/22 10:56:38;;;;;;;6.80;5.50;;;;;;;24.69;58.19;99182.77;430755;1271;199612;-61
2022/08/22 11:06:56;;;;;;;7.30;6.40;;;;;;;25.15;58.22;99186.80;430558;1272;142009;-61
2022/08/22 11:17:18;;;;;;;6.20;5.60;;;;;;;25.82;57.14;99179.16;430342;1271;160867;-61
2022/08/22 11:27:44;;;;;;;6.40;5.60;;;;;;;25.86;56.67;99183.33;430890;1271;142400;-61
2022/08/22 11:37:59;;;;;;;6.30;5.70;;;;;;;25.51;56.92;99188.58;430383;1271;142839;-59
2022/08/22 11:48:18;;;;;;;7.00;6.20;;;;;;;25.11;57.17;99187.48;430843;1270;141289;-60
2022/08/22 11:58:41;;;;;;;6.30;5.80;;;;;;;24.60;58.21;99187.30;431362;1271;142113;-59
2022/08/22 12:09:24;;;;;;;7.10;6.40;;;;;;;24.84;58.59;99193.32;431441;1271;142252;-60
2022/08/22 12:19:39;;;;;;;6.90;5.80;;;;;;;25.28;58.10;99190.95;430867;1271;146555;-60
2022/08/22 12:30:15;;;;;;;9.30;6.40;;;;;;;25.49;57.63;99190.08;431180;1271;147034;-60
2022/08/22 12:40:35;;;;;;;7.00;6.30;;;;;;;25.31;57.60;99170.37;431089;1271;141948;-61
2022/08/22 12:50:49;;;;;;;9.80;6.60;;;;;;;25.10;57.97;99162.77;431585;1271;143210;-60
2022/08/22 13:01:02;;;;;;;9.60;6.70;;;;;;;25.07;58.17;99150.46;431563;1270;141174;-60
2022/08/22 13:11:13;;;;;;;6.90;6.30;;;;;;;25.24;58.30;99145.65;429865;1272;148097;-59
2022/08/22 13:21:31;;;;;;;10.50;6.40;;;;;;;25.26;57.90;99135.98;431214;1270;140900;-60
2022/08/22 13:31:43;;;;;;;7.60;6.60;;;;;;;25.11;58.78;99132.00;431491;1271;142839;-64
2022/08/22 13:41:57;;;;;;;5.30;4.90;;;;;;;24.94;58.91;99136.23;430849;1271;198874;-59
2022/08/22 13:52:13;;;;;;;8.40;5.50;;;;;;;25.09;58.20;99136.95;431169;1271;142610;-61
2022/08/22 14:02:54;;;;;;;6.30;5.70;;;;;;;25.10;58.20;99152.73;429612;1272;141897;-60
2022/08/22 14:13:29;;;;;;;5.30;4.80;;;;;;;24.97;58.42;99158.72;431029;1271;144097;-61
2022/08/22 14:23:36;;;;;;;8.40;5.90;;;;;;;25.14;58.56;99145.14;430162;1272;140780;-59
2022/08/22 14:33:49;;;;;;;11.10;5.90;;;;;;;25.11;58.55;99154.14;431498;1271;141094;-61
2022/08/22 14:44:00;;;;;;;7.60;5.20;;;;;;;25.04;58.53;99147.45;430812;1271;193773;-61
2022/08/22 14:54:16;;;;;;;9.70;5.40;;;;;;;25.18;58.62;99145.10;431249;1271;142365;-61
2022/08/22 15:04:33;;;;;;;11.40;6.30;;;;;;;24.69;58.82;99159.73;430747;1271;142064;-62
2022/08/22 15:14:47;;;;;;;8.10;6.20;;;;;;;24.23;59.71;99149.79;430432;1271;142691;-59
2022/08/22 15:25:02;;;;;;;9.00;5.30;;;;;;;24.00;60.29;99143.79;430899;1271;143446;-61
2022/08/22 15:35:12;;;;;;;7.00;4.80;;;;;;;23.83;60.61;99146.98;430043;1271;141684;-61
2022/08/22 15:45:30;;;;;;;7.60;5.90;;;;;;;23.79;60.76;99140.05;433864;1271;141800;-59
2022/08/22 15:55:59;;;;;;;10.10;5.40;;;;;;;23.76;61.06;99133.36;442086;1271;141564;-61
2022/08/22 16:06:11;;;;;;;8.50;5.60;;;;;;;23.68;61.18;99123.20;433732;1271;143256;-61
2022/08/22 16:16:29;;;;;;;;;;;;;;;23.54;61.55;99129.58;444600;1271;143001;-60
2022/08/22 16:26:41;;;;;;;9.70;5.30;;;;;;;23.38;62.90;99142.67;431534;1271;128220;-61
2022/08/22 16:36:50;;;;;;;7.20;6.00;;;;;;;22.95;64.39;99166.64;431703;1271;142923;-64
2022/08/22 16:47:10;;;;;;;8.80;4.30;;;;;;;22.56;65.48;99181.30;430948;1271;143950;-63
2022/08/22 16:57:23;;;;;;;8.30;5.60;;;;;;;22.35;66.47;99190.42;431393;1271;142094;-65
2022/08/22 17:07:41;;;;;;;6.90;4.70;;;;;;;22.22;67.27;99196.66;432012;1271;142577;-60
2022/08/22 17:18:08;;;;;;;9.80;5.40;;;;;;;21.97;68.49;99204.23;431788;1270;142606;-60
2022/08/22 17:28:25;;;;;;;7.20;5.30;;;;;;;21.78;69.21;99214.61;430961;1270;142632;-61
2022/08/22 17:38:52;;;;;;;6.30;5.30;;;;;;;21.61;69.92;99218.85;430269;1271;143141;-60
2022/08/22 17:49:03;;;;;;;6.60;5.90;;;;;;;21.47;70.47;99223.51;431449;1271;142700;-59
2022/08/22 17:59:18;;;;;;;9.60;6.40;;;;;;;21.36;71.19;99223.19;430634;1271;148137;-61
2022/08/22 18:09:33;;;;;;;6.80;5.00;;;;;;;21.26;71.62;99231.35;431179;1274;143657;-61
2022/08/22 18:19:46;;;;;;;7.70;6.00;;;;;;;21.20;72.34;99243.35;431705;1271;142401;-62
2022/08/22 18:29:57;;;;;;;9.60;6.50;;;;;;;21.12;72.70;99257.45;431438;1271;141644;-60
2022/08/22 18:40:06;;;;;;;7.50;6.80;;;;;;;21.04;73.12;99270.92;430250;1271;2055441;-57
2022/08/22 18:50:30;;;;;;;8.60;6.90;;;;;;;20.96;73.63;99263.45;430448;1271;146778;-60
2022/08/22 19:00:56;;;;;;;9.80;6.90;;;;;;;20.86;74.15;99257.77;430798;1271;142935;-61
2022/08/22 19:11:18;;;;;;;9.40;7.90;;;;;;;20.77;74.70;99258.10;443686;1271;146138;-61
2022/08/22 19:31:54;;;;;;;9.20;8.20;;;;;;;20.61;75.76;99247.20;430321;1271;148041;-61
2022/08/22 19:42:01;;;;;;;9.90;7.80;;;;;;;20.50;76.33;99248.06;430977;1271;141886;-61
2022/08/22 19:52:23;;;;;;;10.10;8.00;;;;;;;20.39;76.88;99253.17;430336;1271;142299;-60
2022/08/22 20:02:39;;;;;;;13.20;8.70;;;;;;;20.34;77.48;99250.71;429822;1271;147427;-60
2022/08/22 20:12:58;;;;;;;8.70;7.70;;;;;;;20.27;77.68;99256.29;431251;1271;142535;-62
2022/08/22 20:23:14;;;;;;;11.70;8.00;;;;;;;20.24;78.25;99253.77;430041;1271;145970;-61
2022/08/22 20:33:25;;;;;;;8.50;7.60;;;;;;;20.19;78.52;99234.02;430993;1270;142607;-61
2022/08/22 20:43:37;;;;;;;9.80;7.70;;;;;;;20.09;79.11;99225.04;430970;1271;142283;-58
2022/08/22 20:53:50;;;;;;;8.80;7.60;;;;;;;19.98;79.77;99215.31;430430;1271;143050;-62
2022/08/22 21:03:57;;;;;;;8.00;7.20;;;;;;;19.90;80.08;99210.02;431252;1271;143275;-62
2022/08/22 21:14:19;;;;;;;14.30;7.50;;;;;;;19.73;80.58;99215.15;430445;1271;142670;-61
2022/08/22 21:24:25;;;;;;;10.30;7.70;;;;;;;19.57;81.16;99217.42;431607;1271;142330;-61
2022/08/22 21:34:35;;;;;;;12.20;8.00;;;;;;;19.40;81.42;99226.50;430402;1271;143032;-61
2022/08/22 21:44:42;;;;;;;8.50;7.40;;;;;;;19.23;81.99;99229.20;430819;1271;148553;-60
2022/08/22 21:54:48;;;;;;;8.90;8.00;;;;;;;19.12;82.76;99223.45;431028;1271;145938;-58
2022/08/22 22:04:54;;;;;;;8.60;7.40;;;;;;;19.03;83.23;99217.78;430119;1271;147055;-60
2022/08/22 22:15:00;;;;;;;8.30;7.00;;;;;;;19.11;83.38;99210.25;431224;1270;142302;-60
2022/08/22 22:25:07;;;;;;;11.60;7.00;;;;;;;19.25;83.50;99197.23;430966;1271;142986;-59
2022/08/22 22:35:34;;;;;;;9.40;7.60;;;;;;;19.40;83.47;99191.55;430464;1271;147447;-58
2022/08/22 22:45:40;;;;;;;9.80;6.00;;;;;;;19.42;82.94;99184.25;430939;1271;141699;-62
2022/08/22 22:55:47;;;;;;;8.20;6.80;;;;;;;19.31;82.82;99169.63;430678;1271;147508;-61
2022/08/22 23:06:10;;;;;;;11.50;7.50;;;;;;;19.10;83.46;99149.72;430768;1271;142582;-61
2022/08/22 23:16:19;;;;;;;7.00;6.20;;;;;;;18.93;83.82;99146.81;430807;1274;145426;-61
2022/08/22 23:26:25;;;;;;;10.80;7.00;;;;;;;18.85;84.43;99154.23;430410;1271;142842;-61
2022/08/22 23:36:31;;;;;;;7.90;6.20;;;;;;;18.84;84.55;99162.15;430699;1271;142989;-61
2022/08/22 23:46:37;;;;;;;9.10;5.90;;;;;;;18.87;84.78;99162.34;430782;1271;143333;-60
2022/08/22 23:56:45;;;;;;;8.30;6.30;;;;;;;18.85;84.82;99165.43;431556;1270;142846;-62
